Time;durP1;ratioP1;P1;durP2;ratioP2;P2;SDS_P1;SDS_P2;PMS_P1;PMS_P2;Temp;Humidity;BMP_temperature;BMP_pressure;BME280_temperature;BME280_humidity;BME280_pressure;Samples;Min_cycle;Max_cycle;Signal;HPM_P1;HPM_P2
2023/03/28 00:00:46;;;;;;;3.43;2.90;;;;;;;7.47;51.81;99620.00;7080356;27;20209;-74
2023/03/28 00:04:10;;;;;;;3.73;3.43;;;;;;;7.18;52.18;99624.97;7080445;27;20352;-75
2023/03/28 00:07:33;;;;;;;3.33;3.00;;;;;;;7.25;52.32;99627.84;7080797;27;20208;-75
2023/03/28 00:11:01;;;;;;;3.43;3.13;;;;;;;7.39;51.91;99629.88;7079989;27;20345;-75
2023/03/28 00:14:23;;;;;;;4.73;3.63;;;;;;;7.09;52.08;99631.34;7080702;27;20223;-74
2023/03/28 00:17:45;;;;;;;3.90;3.17;;;;;;;7.29;52.18;99635.41;7080667;27;20207;-74
2023/03/28 00:21:16;;;;;;;5.40;3.50;;;;;;;7.14;51.77;99637.03;7079909;27;20209;-74
2023/03/28 00:24:39;;;;;;;3.17;2.83;;;;;;;6.83;52.34;99622.50;7080632;27;20230;-74
2023/03/28 00:28:01;;;;;;;7.40;3.17;;;;;;;7.10;52.18;99654.47;7080423;27;20225;-76
2023/03/28 00:31:24;;;;;;;3.60;3.30;;;;;;;7.19;51.55;99642.75;7079419;27;20225;-74
2023/03/28 00:34:45;;;;;;;4.07;3.50;;;;;;;6.87;52.14;99639.13;7080518;27;20731;-74
2023/03/28 00:38:07;;;;;;;8.43;3.30;;;;;;;6.85;52.67;99651.84;7081392;27;20292;-74
2023/03/28 00:41:31;;;;;;;7.33;3.57;;;;;;;6.51;52.97;99656.34;7080320;28;20218;-74
2023/03/28 00:44:53;;;;;;;4.63;3.23;;;;;;;6.98;52.21;99665.63;7089456;27;20325;-74
2023/03/28 00:48:15;;;;;;;3.17;2.87;;;;;;;6.67;52.04;99622.44;7089336;27;20210;-74
2023/03/28 00:51:38;;;;;;;4.90;3.33;;;;;;;7.06;50.96;99633.47;7088524;27;20647;-74
2023/03/28 00:55:00;;;;;;;3.30;3.00;;;;;;;6.99;51.35;99668.16;7089475;27;20201;-77
2023/03/28 00:58:26;;;;;;;4.33;3.00;;;;;;;6.84;52.04;99661.72;7089655;27;20207;-74
2023/03/28 01:01:47;;;;;;;3.23;2.90;;;;;;;7.19;50.83;99666.88;7088316;27;20220;-74
2023/03/28 01:05:09;;;;;;;3.93;3.30;;;;;;;6.98;50.76;99668.31;7089363;27;20235;-74
2023/03/28 01:08:34;;;;;;;4.80;2.90;;;;;;;6.49;50.79;99675.25;7089417;27;20208;-77
2023/03/28 01:11:57;;;;;;;4.63;3.20;;;;;;;5.96;52.55;99685.25;7088067;27;20233;-74
2023/03/28 01:15:20;;;;;;;7.07;3.53;;;;;;;5.79;53.68;99675.34;7089341;27;20560;-74
2023/03/28 01:18:42;;;;;;;5.97;3.07;;;;;;;5.87;53.41;99667.47;7089141;27;20296;-74
2023/03/28 01:22:37;;;;;;;4.93;3.20;;;;;;;6.09;53.04;99679.50;7088465;27;20223;-74
2023/03/28 01:26:16;;;;;;;3.73;2.87;;;;;;;6.13;53.13;99665.66;7021474;28;20206;-77
2023/03/28 01:30:15;;;;;;;4.00;3.57;;;;;;;5.73;53.27;99667.13;7061317;27;20201;-74
2023/03/28 01:33:59;;;;;;;6.93;3.70;;;;;;;5.66;53.97;99666.06;7060472;28;20245;-74
2023/03/28 01:37:25;;;;;;;3.13;2.93;;;;;;;5.34;54.34;99679.94;7060762;28;20543;-75
2023/03/28 01:40:51;;;;;;;4.17;3.50;;;;;;;5.69;53.66;99677.31;7059445;28;20208;-77
2023/03/28 01:44:20;;;;;;;3.43;3.13;;;;;;;5.65;53.81;99697.31;7060008;28;20273;-74
2023/03/28 01:47:47;;;;;;;3.90;3.27;;;;;;;5.83;54.22;99695.50;7060726;28;20251;-75
2023/03/28 01:51:11;;;;;;;3.40;3.10;;;;;;;5.61;53.16;99663.00;7059266;28;20218;-74
2023/03/28 01:54:42;;;;;;;3.70;3.10;;;;;;;5.70;53.66;99702.19;7057134;28;20637;-74
2023/03/28 01:58:07;;;;;;;3.43;3.13;;;;;;;5.47;53.23;99693.78;7055982;28;20198;-75
2023/03/28 02:01:35;;;;;;;4.77;3.60;;;;;;;5.35;54.86;99700.34;7055942;28;20727;-74
2023/03/28 02:04:58;;;;;;;3.83;3.30;;;;;;;5.23;54.37;99673.97;7055610;28;20193;-74
2023/03/28 02:08:20;;;;;;;4.47;3.27;;;;;;;5.37;54.98;99702.88;7055150;28;20202;-76
2023/03/28 02:11:43;;;;;;;3.60;3.30;;;;;;;5.70;53.87;99702.19;7054424;28;20237;-77
2023/03/28 02:15:09;;;;;;;4.47;3.23;;;;;;;5.55;54.22;99699.22;7055095;28;20226;-74
2023/03/28 02:18:35;;;;;;;3.53;3.17;;;;;;;5.18;55.61;99714.53;7055445;28;20579;-75
2023/03/28 02:22:00;;;;;;;3.87;3.10;;;;;;;5.45;54.31;99709.16;7054688;28;20230;-74
2023/03/28 02:25:22;;;;;;;4.80;3.33;;;;;;;4.71;55.72;99659.47;7054996;28;20193;-74
2023/03/28 02:28:47;;;;;;;3.33;3.03;;;;;;;5.35;54.51;99704.84;7058610;27;20190;-74
2023/03/28 02:32:09;;;;;;;3.43;2.93;;;;;;;5.48;54.23;99700.81;7054280;28;20233;-76
2023/03/28 02:35:37;;;;;;;5.33;3.37;;;;;;;5.00;55.46;99708.28;7054910;28;20658;-74
2023/03/28 02:39:20;;;;;;;3.30;2.80;;;;;;;5.38;54.81;99712.56;7054674;28;20214;-74
2023/03/28 02:42:58;;;;;;;4.33;2.83;;;;;;;5.07;55.64;99708.53;7053840;28;20228;-74
2023/03/28 02:46:23;;;;;;;3.93;3.30;;;;;;;5.43;55.12;99708.44;7055208;28;20189;-74
2023/03/28 02:49:49;;;;;;;3.10;2.90;;;;;;;5.51;54.07;99700.53;7055092;28;20241;-76
2023/03/28 02:53:14;;;;;;;4.97;3.13;;;;;;;5.19;54.89;99710.84;7054092;28;20358;-74
2023/03/28 02:56:41;;;;;;;6.77;3.40;;;;;;;5.44;53.92;99706.63;7054601;28;20257;-74
2023/03/28 03:00:09;;;;;;;6.80;3.77;;;;;;;5.37;54.28;99709.03;7053547;28;20244;-74
2023/03/28 03:03:33;;;;;;;4.97;3.50;;;;;;;4.89;55.79;99695.13;7054294;28;20731;-74
2023/03/28 03:06:54;;;;;;;4.53;3.47;;;;;;;4.76;55.35;99709.78;7053883;28;20346;-74
2023/03/28 03:10:16;;;;;;;5.13;3.20;;;;;;;5.11;55.57;99709.91;7053028;28;20264;-74
2023/03/28 03:13:38;;;;;;;5.90;3.50;;;;;;;4.86;54.95;99710.59;7053747;28;20225;-76
2023/03/28 03:16:59;;;;;;;4.10;3.80;;;;;;;4.67;56.26;99700.81;7054040;28;20210;-74
2023/03/28 03:20:24;;;;;;;3.87;3.27;;;;;;;5.06;55.75;99717.53;7053317;28;20265;-74
2023/03/28 03:23:46;;;;;;;5.90;3.70;;;;;;;5.12;54.89;99703.59;7053316;28;20247;-74
2023/03/28 03:27:07;;;;;;;4.07;3.30;;;;;;;5.18;54.31;99709.16;7071048;27;20203;-74
2023/03/28 03:30:29;;;;;;;3.43;3.10;;;;;;;5.04;54.39;99716.84;7081253;27;20209;-75
2023/03/28 03:33:51;;;;;;;3.90;3.13;;;;;;;5.14;54.83;99710.44;7081795;27;20229;-75
2023/03/28 03:37:16;;;;;;;3.30;3.00;;;;;;;4.99;54.65;99711.09;7081291;27;20204;-74
2023/03/28 03:40:38;;;;;;;5.47;3.57;;;;;;;5.07;54.73;99716.56;7080623;27;20190;-75
2023/03/28 03:43:59;;;;;;;5.00;3.70;;;;;;;4.83;54.52;99713.59;7081573;27;20343;-75
2023/03/28 03:47:21;;;;;;;6.40;3.40;;;;;;;5.15;54.26;99713.97;7081516;27;20200;-74
2023/03/28 03:50:42;;;;;;;3.50;3.20;;;;;;;5.06;53.72;99713.03;7080560;27;20217;-74
2023/03/28 03:54:05;;;;;;;4.30;3.70;;;;;;;4.60;55.12;99715.75;7081140;27;20323;-74
2023/03/28 03:57:27;;;;;;;5.60;3.60;;;;;;;4.23;55.35;99693.53;7081151;27;20210;-74
2023/03/28 04:00:48;;;;;;;6.73;3.20;;;;;;;4.33;55.67;99705.03;7080627;27;20250;-74
2023/03/28 04:04:10;;;;;;;5.17;3.30;;;;;;;3.93;57.39;99717.72;7080058;27;20231;-75
2023/03/28 04:07:32;;;;;;;6.90;3.40;;;;;;;4.45;56.73;99693.19;7080647;27;20255;-76
2023/03/28 04:10:55;;;;;;;6.43;4.10;;;;;;;4.05;57.25;99707.72;7079853;27;20209;-74
2023/03/28 04:14:16;;;;;;;5.20;4.20;;;;;;;4.68;56.41;99707.03;7080312;27;20239;-74
2023/03/28 04:17:40;;;;;;;6.13;3.97;;;;;;;4.53;56.37;99722.66;7079625;27;20262;-76
2023/03/28 04:21:01;;;;;;;5.43;4.00;;;;;;;4.38;56.11;99708.13;7079282;27;20283;-74
2023/03/28 04:24:24;;;;;;;5.73;3.83;;;;;;;4.34;55.69;99714.72;7080189;27;20226;-74
2023/03/28 04:27:46;;;;;;;5.70;4.47;;;;;;;4.41;56.47;99690.94;7080337;27;20221;-75
2023/03/28 04:31:10;;;;;;;7.53;6.87;;;;;;;4.56;54.98;99698.34;7056144;27;20208;-74
2023/03/28 04:34:32;;;;;;;5.13;4.63;;;;;;;4.42;56.04;99732.69;7051652;28;20591;-74
2023/03/28 04:37:56;;;;;;;4.73;4.07;;;;;;;3.89;57.00;99731.50;7051629;28;20260;-74
2023/03/28 04:41:18;;;;;;;5.00;4.50;;;;;;;4.37;56.49;99742.94;7050588;28;20222;-74
2023/03/28 04:44:41;;;;;;;4.77;4.13;;;;;;;4.28;56.27;99743.78;7051550;28;20312;-76
2023/03/28 04:48:02;;;;;;;5.63;4.13;;;;;;;4.62;55.35;99747.66;7051043;28;20236;-74
2023/03/28 04:51:24;;;;;;;5.10;4.20;;;;;;;4.53;55.07;99753.84;7050838;28;20216;-74
2023/03/28 04:54:45;;;;;;;5.13;3.90;;;;;;;4.46;56.06;99761.63;7051642;28;20326;-76
2023/03/28 04:58:07;;;;;;;8.57;5.17;;;;;;;4.15;56.41;99756.59;7052738;28;20212;-74
2023/03/28 05:01:30;;;;;;;5.77;4.93;;;;;;;4.41;55.68;99750.53;7051779;28;20575;-77
2023/03/28 05:04:52;;;;;;;8.10;4.37;;;;;;;4.43;56.21;99758.41;7051430;28;20686;-75
2023/03/28 05:08:15;;;;;;;7.70;4.77;;;;;;;4.73;54.98;99760.84;7051562;28;20657;-75
2023/03/28 05:11:36;;;;;;;7.83;5.10;;;;;;;4.40;54.73;99756.00;7050207;28;20299;-76
2023/03/28 05:14:57;;;;;;;8.70;6.80;;;;;;;3.62;56.47;99777.50;7051300;28;20230;-74
2023/03/28 05:18:20;;;;;;;7.90;5.63;;;;;;;4.13;56.48;99771.91;7051174;28;20265;-75
2023/03/28 05:21:42;;;;;;;7.97;6.07;;;;;;;4.42;56.25;99778.91;7049911;28;20560;-76
2023/03/28 05:25:05;;;;;;;8.67;5.47;;;;;;;4.60;54.87;99763.81;7050827;28;20262;-78
2023/03/28 05:28:27;;;;;;;7.33;5.30;;;;;;;4.51;55.04;99775.38;7074498;27;20211;-75
2023/03/28 05:31:49;;;;;;;8.27;7.10;;;;;;;3.92;56.63;99782.72;7084469;27;20228;-75
2023/03/28 05:35:14;;;;;;;11.03;6.43;;;;;;;4.43;56.11;99785.09;7084855;27;20635;-75
2023/03/28 05:38:36;;;;;;;11.20;5.10;;;;;;;4.65;55.46;99790.13;7084548;27;20333;-75
2023/03/28 05:41:57;;;;;;;7.83;4.90;;;;;;;4.67;55.29;99796.97;7080529;27;20232;-75
2023/03/28 05:45:19;;;;;;;8.97;6.70;;;;;;;4.44;55.05;99798.31;7077160;27;20208;-76
2023/03/28 05:48:40;;;;;;;6.63;4.50;;;;;;;4.07;56.27;99797.31;7082274;27;20211;-74
2023/03/28 05:52:04;;;;;;;8.60;6.47;;;;;;;3.72;57.78;99805.00;7057725;27;20714;-75
2023/03/28 05:55:26;;;;;;;12.97;7.60;;;;;;;4.10;56.93;99807.72;7054827;28;20224;-75
2023/03/28 05:58:48;;;;;;;9.43;6.83;;;;;;;4.44;55.71;99806.31;7051986;28;20219;-78
2023/03/28 06:02:11;;;;;;;5.80;5.30;;;;;;;4.54;55.53;99804.47;7052945;28;20235;-74
2023/03/28 06:05:33;;;;;;;8.47;5.57;;;;;;;4.45;55.87;99821.34;7054937;28;20297;-74
2023/03/28 06:08:56;;;;;;;6.87;6.17;;;;;;;4.72;56.65;99821.44;7055398;28;20338;-77
2023/03/28 06:12:17;;;;;;;8.23;5.00;;;;;;;5.39;55.04;99823.88;7053646;28;20228;-74
2023/03/28 06:15:39;;;;;;;7.40;5.57;;;;;;;5.84;54.56;99817.59;7053596;28;20289;-75
2023/03/28 06:19:00;;;;;;;6.97;4.07;;;;;;;6.17;53.13;99806.25;7054927;28;20236;-80
2023/03/28 06:22:22;;;;;;;5.40;4.40;;;;;;;7.02;51.16;99798.38;7069711;27;20732;-74
2023/03/28 06:25:45;;;;;;;4.43;3.87;;;;;;;7.68;48.43;99818.13;7076602;27;20290;-76
2023/03/28 06:29:06;;;;;;;6.30;4.47;;;;;;;7.89;48.25;99818.56;7057894;27;20204;-75
2023/03/28 06:32:28;;;;;;;5.80;4.67;;;;;;;7.57;47.39;99827.34;7082060;27;20334;-77
2023/03/28 06:35:50;;;;;;;7.70;4.57;;;;;;;7.93;49.38;99836.84;7082921;27;20730;-76
2023/03/28 06:39:12;;;;;;;6.97;6.23;;;;;;;8.60;46.40;99822.38;7083110;27;20231;-77
2023/03/28 06:42:34;;;;;;;6.80;5.13;;;;;;;8.75;47.08;99831.44;7081125;27;20354;-74
2023/03/28 06:45:56;;;;;;;7.33;5.23;;;;;;;8.45;47.55;99837.47;7082511;27;20267;-76
2023/03/28 06:49:18;;;;;;;9.63;4.70;;;;;;;8.62;48.01;99828.44;7069162;27;20263;-74
2023/03/28 06:52:39;;;;;;;7.57;5.43;;;;;;;8.97;48.04;99831.63;7081466;27;20289;-76
2023/03/28 06:56:01;;;;;;;13.03;5.40;;;;;;;9.68;45.99;99829.75;7078751;27;20207;-75
2023/03/28 06:59:24;;;;;;;9.07;5.33;;;;;;;10.26;44.76;99835.50;7081992;27;20200;-76
2023/03/28 07:02:46;;;;;;;8.00;6.27;;;;;;;10.33;43.65;99837.31;7081136;27;20284;-74
2023/03/28 07:06:08;;;;;;;21.43;12.00;;;;;;;10.61;44.05;99834.91;7082115;27;20257;-77
2023/03/28 07:09:30;;;;;;;14.87;10.07;;;;;;;10.01;44.19;99836.63;7085755;27;20290;-73
2023/03/28 07:12:52;;;;;;;10.83;8.07;;;;;;;10.66;43.91;99841.47;7081671;27;20318;-74
2023/03/28 07:16:15;;;;;;;8.43;5.70;;;;;;;11.61;41.73;99841.56;7081272;27;20211;-75
2023/03/28 07:19:37;;;;;;;8.00;5.10;;;;;;;11.90;41.85;99838.00;7080694;27;20251;-77
2023/03/28 07:22:59;;;;;;;5.50;3.77;;;;;;;10.86;41.84;99848.03;7081502;27;20283;-74
2023/03/28 07:26:20;;;;;;;8.53;3.93;;;;;;;10.53;42.16;99852.03;7076562;27;20200;-74
2023/03/28 07:29:42;;;;;;;6.37;4.33;;;;;;;10.26;42.50;99848.97;7078073;27;20290;-75
2023/03/28 07:33:05;;;;;;;5.20;4.70;;;;;;;9.62;43.39;99855.50;7080386;27;20231;-76
2023/03/28 07:36:28;;;;;;;5.03;4.00;;;;;;;9.81;43.51;99844.31;7080828;27;20339;-78
2023/03/28 07:39:49;;;;;;;7.70;4.10;;;;;;;10.14;43.54;99850.41;7080060;27;20203;-76
2023/03/28 07:43:11;;;;;;;7.07;4.57;;;;;;;9.53;43.75;99853.00;7070436;27;20699;-75
2023/03/28 07:46:36;;;;;;;8.83;4.30;;;;;;;9.42;43.65;99815.69;7080641;27;20251;-76
2023/03/28 07:49:59;;;;;;;9.77;4.50;;;;;;;9.35;44.76;99849.69;7080027;27;20353;-76
2023/03/28 07:53:20;;;;;;;8.20;4.77;;;;;;;10.21;43.33;99862.19;7096916;27;20259;-79
2023/03/28 07:56:42;;;;;;;6.13;4.00;;;;;;;9.96;43.03;99858.72;7082347;27;20203;-77
2023/03/28 08:00:12;;;;;;;7.77;4.20;;;;;;;11.03;42.57;99860.38;7055237;28;20280;-79
2023/03/28 08:03:33;;;;;;;6.73;4.33;;;;;;;11.96;39.59;99861.56;7062647;27;20226;-77
2023/03/28 08:06:56;;;;;;;8.77;4.37;;;;;;;10.77;41.51;99872.56;7073158;27;20244;-76
2023/03/28 08:10:18;;;;;;;6.50;4.40;;;;;;;11.41;40.60;99851.22;7079480;27;20214;-78
2023/03/28 08:13:40;;;;;;;5.83;4.00;;;;;;;11.35;39.35;99860.06;7078840;27;20638;-77
2023/03/28 08:17:01;;;;;;;8.47;4.17;;;;;;;12.60;39.58;99856.13;7080801;27;20582;-81
2023/03/28 08:20:23;;;;;;;8.57;3.80;;;;;;;12.60;37.55;99861.53;7081107;27;20294;-76
2023/03/28 08:23:45;;;;;;;6.50;3.80;;;;;;;12.83;38.16;99869.44;7079650;27;20224;-76
2023/03/28 08:27:07;;;;;;;9.13;4.07;;;;;;;12.63;37.77;99876.53;7079952;27;20207;-77
2023/03/28 08:30:29;;;;;;;9.57;3.93;;;;;;;13.43;37.11;99872.50;7081535;27;20268;-77
2023/03/28 08:33:51;;;;;;;4.37;3.80;;;;;;;13.94;37.22;99869.28;7075451;27;20229;-79
2023/03/28 08:37:12;;;;;;;8.00;3.77;;;;;;;13.05;35.47;99869.25;7080863;27;20198;-83
2023/03/28 08:40:37;;;;;;;6.23;3.83;;;;;;;13.12;36.57;99863.91;7077803;27;20292;-77
2023/03/28 08:44:12;;;;;;;6.77;3.40;;;;;;;12.92;35.47;99868.28;7063707;28;20268;-79
2023/03/28 08:47:37;;;;;;;7.03;3.23;;;;;;;13.67;35.11;99863.88;7050714;28;20205;-77
2023/03/28 08:51:02;;;;;;;7.03;3.60;;;;;;;14.22;32.74;99834.78;7050540;28;20227;-78
2023/03/28 08:54:24;;;;;;;7.57;3.40;;;;;;;14.31;34.44;99862.59;7050946;28;20610;-78
2023/03/28 08:57:48;;;;;;;8.03;3.40;;;;;;;13.40;33.32;99878.31;7051927;28;20245;-78
2023/03/28 09:01:10;;;;;;;10.07;3.43;;;;;;;12.61;34.31;99875.88;7056745;28;20289;-76
2023/03/28 09:04:34;;;;;;;7.07;3.23;;;;;;;11.99;38.26;99872.84;7081769;27;20224;-77
2023/03/28 09:08:00;;;;;;;5.13;3.30;;;;;;;13.55;35.63;99870.91;7086727;27;20200;-79
2023/03/28 09:11:33;;;;;;;18.27;12.43;;;;;;;14.11;34.66;99878.72;7084078;27;20196;-76
2023/03/28 09:15:14;;;;;;;7.83;4.73;;;;;;;14.92;34.52;99864.22;7086911;27;20243;-79
2023/03/28 09:19:03;;;;;;;5.67;3.30;;;;;;;13.78;34.94;99866.03;7086740;27;20188;-79
2023/03/28 09:22:30;;;;;;;5.53;3.03;;;;;;;12.87;34.10;99868.84;7074250;27;20221;-80
2023/03/28 09:25:55;;;;;;;5.50;3.77;;;;;;;12.56;35.36;99873.75;7084997;27;20207;-76
2023/03/28 09:29:18;;;;;;;5.00;3.90;;;;;;;12.14;35.93;99879.09;7073519;27;20204;-76
2023/03/28 09:32:41;;;;;;;7.20;4.17;;;;;;;12.29;36.05;99868.25;7083994;27;20219;-75
2023/03/28 09:36:08;;;;;;;4.80;2.97;;;;;;;11.40;36.88;99875.72;7083975;27;20290;-77
2023/03/28 09:39:35;;;;;;;6.33;3.20;;;;;;;10.95;36.74;99863.16;7081269;27;20211;-77
2023/03/28 09:43:06;;;;;;;4.27;3.20;;;;;;;10.58;37.80;99883.84;7084136;27;20303;-80
2023/03/28 09:46:30;;;;;;;5.80;3.87;;;;;;;11.00;37.54;99876.94;7060447;27;20200;-76
2023/03/28 09:49:53;;;;;;;8.17;3.70;;;;;;;11.69;35.96;99871.19;7077356;27;20203;-78
2023/03/28 09:53:22;;;;;;;5.13;3.33;;;;;;;11.81;35.65;99864.28;7084129;27;20373;-76
2023/03/28 09:56:44;;;;;;;4.80;3.00;;;;;;;13.01;34.33;99873.41;7084336;27;20192;-79
2023/03/28 10:00:20;;;;;;;4.40;2.90;;;;;;;13.71;31.32;99870.59;7083313;27;20259;-77
2023/03/28 10:03:52;;;;;;;4.13;3.13;;;;;;;14.76;30.00;99854.56;7085123;27;20279;-79
2023/03/28 10:07:28;;;;;;;4.17;2.83;;;;;;;14.29;30.64;99851.91;7084038;27;20695;-77
2023/03/28 10:10:58;;;;;;;6.63;2.70;;;;;;;13.84;31.42;99855.25;7055393;27;20205;-82
2023/03/28 10:14:31;;;;;;;5.57;2.60;;;;;;;14.55;30.93;99819.44;7098149;27;20649;-76
2023/03/28 10:17:52;;;;;;;6.50;2.60;;;;;;;14.41;29.63;99849.47;7111794;27;20286;-76
2023/03/28 10:21:16;;;;;;;5.90;2.13;;;;;;;15.03;28.84;99836.41;7111163;27;20212;-78
2023/03/28 10:24:39;;;;;;;4.87;2.60;;;;;;;14.51;28.20;99814.66;7111066;27;20226;-77
2023/03/28 10:28:03;;;;;;;4.60;2.47;;;;;;;15.57;25.89;99837.88;7111518;27;20280;-77
2023/03/28 10:31:28;;;;;;;3.30;2.13;;;;;;;14.84;25.05;99829.09;7110593;27;20207;-77
2023/03/28 10:34:59;;;;;;;5.97;2.60;;;;;;;14.78;27.26;99809.06;7110940;27;20227;-77
2023/03/28 10:38:21;;;;;;;4.80;2.47;;;;;;;14.54;27.64;99827.78;7095503;27;21004;-78
2023/03/28 10:41:52;;;;;;;3.10;2.00;;;;;;;14.86;25.99;99827.03;7060301;27;20205;-79
2023/03/28 10:45:20;;;;;;;2.97;2.17;;;;;;;15.55;24.89;99768.44;7069989;27;20200;-77
2023/03/28 10:48:46;;;;;;;3.20;2.43;;;;;;;15.12;25.27;99808.00;7082014;27;20242;-77
2023/03/28 10:52:16;;;;;;;2.93;2.00;;;;;;;15.07;26.56;99805.06;7080135;27;20245;-76
2023/03/28 10:55:45;;;;;;;3.13;2.10;;;;;;;15.89;25.29;99793.44;7081280;27;20878;-78
2023/03/28 10:59:20;;;;;;;4.23;2.40;;;;;;;14.64;25.72;99822.81;7080667;27;20210;-77
2023/03/28 11:02:57;;;;;;;3.33;2.10;;;;;;;14.16;27.99;99813.88;7080762;27;20220;-76
2023/03/28 11:06:21;;;;;;;3.67;2.53;;;;;;;14.81;26.69;99814.03;7080918;27;20247;-74
2023/03/28 11:09:46;;;;;;;2.60;2.20;;;;;;;13.15;27.35;99809.38;7080886;27;20966;-74
2023/03/28 11:13:18;;;;;;;2.70;2.40;;;;;;;14.41;27.62;99812.34;7072941;27;20244;-74
2023/03/28 11:16:47;;;;;;;2.40;2.20;;;;;;;15.06;26.88;99792.53;7053307;28;20276;-74
2023/03/28 11:20:23;;;;;;;3.17;2.40;;;;;;;15.71;26.94;99787.88;7052649;28;20708;-76
2023/03/28 11:23:47;;;;;;;3.93;2.40;;;;;;;15.23;27.45;99783.75;7052958;28;20707;-75
2023/03/28 11:27:14;;;;;;;7.40;2.50;;;;;;;15.06;26.44;99787.97;7054789;28;20749;-74
2023/03/28 11:30:36;;;;;;;3.80;2.40;;;;;;;15.33;26.26;99783.38;7053291;28;20241;-77
2023/03/28 11:34:03;;;;;;;5.67;2.70;;;;;;;15.52;25.25;99782.47;7052934;28;20324;-77
2023/03/28 11:37:27;;;;;;;7.57;4.47;;;;;;;15.10;26.35;99772.91;7051988;28;20721;-77
2023/03/28 11:40:52;;;;;;;6.47;3.50;;;;;;;15.57;25.56;99771.81;7051759;28;20674;-75
2023/03/28 11:44:18;;;;;;;8.23;3.73;;;;;;;15.13;26.36;99766.22;7052815;27;20258;-78
2023/03/28 11:47:42;;;;;;;5.07;3.07;;;;;;;15.14;26.01;99746.13;7051897;28;20301;-77
2023/03/28 11:51:09;;;;;;;3.57;2.53;;;;;;;15.53;26.62;99759.69;7050309;28;20262;-76
2023/03/28 11:54:35;;;;;;;6.27;3.10;;;;;;;15.49;26.34;99755.72;7051651;28;20236;-77
2023/03/28 11:57:59;;;;;;;5.97;2.40;;;;;;;15.02;25.25;99745.97;7051878;28;20560;-76
2023/03/28 12:01:21;;;;;;;3.60;2.20;;;;;;;15.61;26.52;99735.81;7050869;28;20291;-77
2023/03/28 12:04:45;;;;;;;3.27;2.30;;;;;;;16.17;25.54;99750.41;7051319;28;20690;-75
2023/03/28 12:08:12;;;;;;;8.07;2.90;;;;;;;15.40;25.76;99722.50;7053540;28;20267;-77
2023/03/28 12:11:39;;;;;;;3.23;2.37;;;;;;;16.28;25.07;99740.72;7053223;28;20215;-76
2023/03/28 12:15:04;;;;;;;2.60;2.30;;;;;;;16.35;24.95;99725.19;7051819;28;20374;-76
2023/03/28 12:18:30;;;;;;;3.93;2.40;;;;;;;16.58;25.69;99711.84;7058862;27;20200;-78
2023/03/28 12:21:54;;;;;;;4.30;2.20;;;;;;;16.88;24.48;99715.56;7076595;27;20313;-78
2023/03/28 12:25:25;;;;;;;4.93;2.43;;;;;;;17.19;23.65;99707.31;7078638;27;20293;-77
2023/03/28 12:28:49;;;;;;;2.63;2.17;;;;;;;17.16;24.13;99688.69;7065578;27;20211;-78
2023/03/28 12:32:23;;;;;;;5.40;3.97;;;;;;;16.41;24.43;99686.22;7048642;28;20881;-77
2023/03/28 12:35:48;;;;;;;6.07;2.90;;;;;;;15.73;25.61;99687.03;7050548;28;20224;-78
2023/03/28 12:39:21;;;;;;;3.47;2.87;;;;;;;15.69;25.59;99694.78;7078039;27;20243;-77
2023/03/28 12:42:45;;;;;;;4.43;2.53;;;;;;;15.05;25.31;99693.09;7076703;27;20232;-76
2023/03/28 12:46:07;;;;;;;3.80;2.33;;;;;;;16.26;25.10;99685.66;7078709;28;20617;-78
2023/03/28 12:49:32;;;;;;;3.30;2.67;;;;;;;16.12;26.36;99692.25;7075321;28;20664;-76
2023/03/28 12:52:54;;;;;;;3.73;2.27;;;;;;;16.92;25.25;99689.56;7054008;28;20304;-76
2023/03/28 12:56:16;;;;;;;3.33;2.50;;;;;;;16.79;24.20;99676.03;7078459;28;20262;-76
2023/03/28 12:59:49;;;;;;;3.90;2.63;;;;;;;14.18;26.34;99684.34;7077359;28;20212;-76
2023/03/28 13:03:17;;;;;;;5.80;2.53;;;;;;;14.24;26.20;99666.41;7078715;28;20232;-76
2023/03/28 13:06:43;;;;;;;3.87;2.20;;;;;;;13.22;28.23;99683.78;7076137;28;20203;-76
2023/03/28 13:10:11;;;;;;;2.30;2.10;;;;;;;13.06;28.92;99675.19;7079082;28;20486;-75
2023/03/28 13:13:41;;;;;;;4.40;2.33;;;;;;;14.90;27.76;99660.75;7057721;28;20238;-76
2023/03/28 13:17:17;;;;;;;3.63;2.13;;;;;;;14.47;28.24;99672.28;7077291;28;20224;-76
2023/03/28 13:20:45;;;;;;;3.30;2.10;;;;;;;15.60;26.65;99663.47;7075341;28;20199;-76
2023/03/28 13:24:24;;;;;;;4.77;2.40;;;;;;;15.98;26.11;99658.84;7077147;27;20800;-77
2023/03/28 13:27:47;;;;;;;3.33;2.73;;;;;;;15.91;25.47;99646.34;7078758;28;20207;-76
2023/03/28 13:31:11;;;;;;;4.90;2.20;;;;;;;16.10;24.77;99626.34;7091829;28;20287;-76
2023/03/28 13:34:35;;;;;;;6.77;2.53;;;;;;;15.82;25.27;99639.50;7105772;27;20221;-79
2023/03/28 13:38:13;;;;;;;3.83;2.27;;;;;;;14.73;25.27;99597.09;7083770;28;20298;-77
2023/03/28 13:41:54;;;;;;;4.97;2.53;;;;;;;15.71;25.40;99638.31;7054531;28;20662;-77
2023/03/28 13:45:21;;;;;;;9.73;2.50;;;;;;;14.79;25.48;99633.41;7054737;28;20200;-77
2023/03/28 13:48:46;;;;;;;3.53;2.30;;;;;;;15.01;26.02;99627.50;7064016;28;20221;-75
2023/03/28 13:52:14;;;;;;;2.83;2.40;;;;;;;14.27;27.64;99623.44;7080795;27;20241;-76
2023/03/28 13:55:36;;;;;;;3.80;2.57;;;;;;;15.23;25.40;99639.75;7087507;27;20217;-76
2023/03/28 13:58:59;;;;;;;3.53;2.43;;;;;;;16.31;25.20;99626.81;7081922;27;20241;-76
2023/03/28 14:02:22;;;;;;;4.70;2.30;;;;;;;15.66;24.58;99619.09;7078354;27;20230;-77
2023/03/28 14:05:45;;;;;;;5.47;2.60;;;;;;;15.01;23.83;99600.34;7073511;27;20192;-77
2023/03/28 14:09:14;;;;;;;3.80;2.40;;;;;;;15.81;24.84;99597.06;7082926;27;20688;-77
2023/03/28 14:12:36;;;;;;;4.03;2.37;;;;;;;16.51;23.69;99599.47;7081293;27;20236;-77
2023/03/28 14:15:57;;;;;;;3.03;2.40;;;;;;;16.55;22.57;99576.16;7078536;27;20245;-76
2023/03/28 14:19:21;;;;;;;2.20;2.00;;;;;;;16.58;23.20;99571.09;7082128;27;20259;-77
2023/03/28 14:22:50;;;;;;;3.40;2.20;;;;;;;16.50;23.12;99570.53;7079024;27;20782;-77
2023/03/28 14:26:16;;;;;;;3.90;2.37;;;;;;;16.32;24.19;99562.31;7080195;27;20195;-78
2023/03/28 14:29:51;;;;;;;4.27;2.43;;;;;;;17.05;22.77;99539.56;7077591;27;20212;-78
2023/03/28 14:33:17;;;;;;;4.37;2.30;;;;;;;16.86;23.49;99535.19;7078935;27;20230;-77
2023/03/28 14:36:57;;;;;;;3.70;2.03;;;;;;;16.95;23.54;99547.44;7082084;27;20233;-78
2023/03/28 14:40:26;;;;;;;2.80;2.40;;;;;;;15.94;25.10;99542.56;7083917;27;20205;-77
2023/03/28 14:43:54;;;;;;;4.40;2.50;;;;;;;16.10;23.77;99528.41;7066244;27;20295;-74
2023/03/28 14:47:20;;;;;;;3.07;2.20;;;;;;;15.11;23.76;99497.50;7054115;28;20205;-77
2023/03/28 14:50:42;;;;;;;3.93;2.47;;;;;;;15.02;25.08;99474.38;7050186;28;20214;-77
2023/03/28 14:54:03;;;;;;;3.33;2.40;;;;;;;16.07;23.61;99510.66;7064249;28;20367;-77
2023/03/28 14:57:25;;;;;;;4.40;2.60;;;;;;;16.23;23.78;99525.56;7053319;28;20233;-77
2023/03/28 15:00:51;;;;;;;3.53;2.83;;;;;;;15.40;23.82;99521.41;7052287;28;20736;-77
2023/03/28 15:04:13;;;;;;;5.77;2.53;;;;;;;15.59;24.23;99516.88;7050077;28;20230;-77
2023/03/28 15:07:36;;;;;;;3.90;2.70;;;;;;;15.98;23.74;99494.84;7075562;27;20292;-76
2023/03/28 15:11:02;;;;;;;4.10;2.50;;;;;;;15.69;22.96;99496.31;7063697;27;20899;-75
2023/03/28 15:14:32;;;;;;;3.47;2.30;;;;;;;16.02;24.07;99493.31;7054624;27;20221;-77
2023/03/28 15:17:55;;;;;;;2.97;2.20;;;;;;;16.24;22.97;99492.69;7053503;28;20186;-77
2023/03/28 15:21:17;;;;;;;4.90;2.60;;;;;;;16.21;23.37;99484.97;7076187;27;20213;-75
2023/03/28 15:24:39;;;;;;;3.43;2.30;;;;;;;16.17;23.37;99477.50;7081009;27;20708;-75
2023/03/28 15:28:02;;;;;;;3.17;2.50;;;;;;;15.91;23.84;99475.00;7081599;27;20549;-75
2023/03/28 15:31:24;;;;;;;5.00;2.30;;;;;;;15.84;23.41;99466.91;7081002;27;20262;-75
2023/03/28 15:34:48;;;;;;;4.03;2.50;;;;;;;15.03;24.17;99453.47;7080593;27;20361;-75
2023/03/28 15:38:18;;;;;;;3.57;2.40;;;;;;;15.94;24.44;99450.09;7080846;27;20217;-78
2023/03/28 15:41:45;;;;;;;3.40;2.40;;;;;;;15.69;24.43;99457.44;7081386;27;20189;-76
2023/03/28 15:45:28;;;;;;;5.40;3.57;;;;;;;16.20;24.42;99442.50;7082530;27;20201;-81
2023/03/28 15:48:50;;;;;;;4.50;2.40;;;;;;;15.45;24.36;99434.63;7078598;27;20271;-78
2023/03/28 15:52:17;;;;;;;3.40;2.30;;;;;;;15.70;24.23;99438.16;7077775;27;20643;-76
2023/03/28 15:55:40;;;;;;;2.70;2.40;;;;;;;15.79;24.54;99427.84;7079799;27;20230;-77
2023/03/28 15:59:03;;;;;;;3.30;2.40;;;;;;;16.32;24.28;99429.81;7088404;27;20298;-77
2023/03/28 16:02:31;;;;;;;4.23;2.70;;;;;;;16.40;24.57;99424.06;7079820;27;20640;-76
2023/03/28 16:05:55;;;;;;;3.53;3.23;;;;;;;16.70;24.63;99430.41;7079065;27;20364;-78
2023/03/28 16:09:19;;;;;;;4.07;3.20;;;;;;;16.59;24.76;99417.59;7080196;27;20210;-74